Time;durP1;ratioP1;P1;durP2;ratioP2;P2;SDS_P1;SDS_P2;PMS_P1;PMS_P2;Temp;Humidity;BMP_temperature;BMP_pressure;BME280_temperature;BME280_humidity;BME280_pressure;Samples;Min_cycle;Max_cycle;Signal;HPM_P1;HPM_P2
2022/01/05 00:02:58;;;;;;;0.55;0.32;;;;;;;;;;10246555;29;20050;-77
2022/01/05 00:08:01;;;;;;;0.80;0.30;;;;;;;;;;10235661;29;20115;-76
2022/01/05 00:13:04;;;;;;;0.35;0.30;;;;;;;;;;10236544;28;20531;-77
2022/01/05 00:18:08;;;;;;;0.45;0.25;;;;;;;;;;10247607;29;20027;-76
2022/01/05 00:23:11;;;;;;;;;;;;;;;;;;10243333;29;20043;-75
2022/01/05 00:28:14;;;;;;;0.20;0.13;;;;;;;;;;10242611;29;20496;-77
2022/01/05 00:33:18;;;;;;;0.22;0.22;;;;;;;;;;10237822;29;20551;-79
2022/01/05 00:38:20;;;;;;;;;;;;;;;;;;10234592;29;20035;-75
2022/01/05 00:43:23;;;;;;;0.10;0.10;;;;;;;;;;10246687;29;20469;-77
2022/01/05 00:48:29;;;;;;;0.55;0.20;;;;;;;;;;10240997;29;20038;-79
2022/01/05 00:53:32;;;;;;;0.57;0.23;;;;;;;;;;10252577;28;20039;-78
2022/01/05 00:58:35;;;;;;;1.30;0.53;;;;;;;;;;10236390;29;20122;-78
2022/01/05 01:03:40;;;;;;;0.27;0.20;;;;;;;;;;10237353;29;20067;-77
2022/01/05 01:08:43;;;;;;;0.50;0.17;;;;;;;;;;10235242;29;20765;-79
2022/01/05 01:13:46;;;;;;;0.23;0.17;;;;;;;;;;10238467;29;20155;-78
2022/01/05 01:18:50;;;;;;;0.47;0.20;;;;;;;;;;10228538;29;20039;-75
2022/01/05 01:23:56;;;;;;;0.20;0.10;;;;;;;;;;10235872;28;20125;-74
2022/01/05 01:28:59;;;;;;;0.17;0.10;;;;;;;;;;10231578;29;20066;-77
2022/01/05 01:34:03;;;;;;;0.00;0.00;;;;;;;;;;10230492;29;20113;-75
2022/01/05 01:39:06;;;;;;;1.03;0.17;;;;;;;;;;10221338;29;20059;-76
2022/01/05 01:44:09;;;;;;;0.63;0.20;;;;;;;;;;10245698;28;20044;-78
2022/01/05 01:49:13;;;;;;;0.10;0.10;;;;;;;;;;10227932;29;20054;-76
2022/01/05 01:54:16;;;;;;;0.10;0.10;;;;;;;;;;10230750;29;20043;-78
2022/01/05 01:59:19;;;;;;;0.10;0.10;;;;;;;;;;10221123;29;20516;-80
2022/01/05 02:04:24;;;;;;;0.20;0.13;;;;;;;;;;10220581;29;20043;-81
2022/01/05 02:09:27;;;;;;;0.37;0.17;;;;;;;;;;10213939;29;20066;-81
2022/01/05 02:14:30;;;;;;;0.20;0.20;;;;;;;;;;10223461;29;20063;-80
2022/01/05 02:19:35;;;;;;;0.10;0.10;;;;;;;;;;10217233;28;20181;-76
2022/01/05 02:24:51;;;;;;;0.20;0.20;;;;;;;;;;10221942;29;20043;-79
2022/01/05 02:29:55;;;;;;;0.33;0.30;;;;;;;;;;10216173;28;20377;-77
2022/01/05 02:34:58;;;;;;;1.10;0.63;;;;;;;;;;10215569;29;20126;-77
2022/01/05 02:40:02;;;;;;;0.40;0.20;;;;;;;;;;10218658;29;20084;-75
2022/01/05 02:45:06;;;;;;;0.47;0.13;;;;;;;;;;10209160;29;20165;-76
2022/01/05 02:50:10;;;;;;;0.30;0.20;;;;;;;;;;10214625;29;20171;-77
2022/01/05 02:55:14;;;;;;;0.52;0.15;;;;;;;;;;10218155;29;20066;-77
2022/01/05 03:00:17;;;;;;;0.20;0.20;;;;;;;;;;10217881;29;20091;-79
2022/01/05 03:05:20;;;;;;;1.10;0.43;;;;;;;;;;10220477;29;20135;-76
2022/01/05 03:10:25;;;;;;;0.90;0.43;;;;;;;;;;10221021;29;20035;-76
2022/01/05 03:15:30;;;;;;;0.10;0.10;;;;;;;;;;10214956;29;20047;-77
2022/01/05 03:20:34;;;;;;;0.87;0.27;;;;;;;;;;10213135;29;20066;-81
2022/01/05 03:25:40;;;;;;;0.40;0.23;;;;;;;;;;10222584;29;20087;-79
2022/01/05 03:30:43;;;;;;;1.17;0.30;;;;;;;;;;10220572;28;20047;-77
2022/01/05 03:35:46;;;;;;;0.23;0.10;;;;;;;;;;10211564;29;20050;-75
2022/01/05 03:40:51;;;;;;;0.30;0.25;;;;;;;;;;10207705;29;20193;-78
2022/01/05 03:45:54;;;;;;;0.50;0.30;;;;;;;;;;10208902;28;20059;-77
2022/01/05 03:50:57;;;;;;;0.20;0.10;;;;;;;;;;10210450;29;20051;-79
2022/01/05 03:56:02;;;;;;;0.37;0.20;;;;;;;;;;10216995;29;20070;-80
2022/01/05 04:01:05;;;;;;;0.10;0.10;;;;;;;;;;10215568;29;20075;-76
2022/01/05 04:06:08;;;;;;;0.30;0.20;;;;;;;;;;10206690;29;20063;-78
2022/01/05 04:11:15;;;;;;;0.60;0.20;;;;;;;;;;10204914;29;20042;-76
2022/01/05 04:16:18;;;;;;;0.37;0.00;;;;;;;;;;10213011;29;20072;-77
2022/01/05 04:21:21;;;;;;;0.20;0.20;;;;;;;;;;10222222;29;20044;-78
2022/01/05 04:26:26;;;;;;;0.03;0.03;;;;;;;;;;10215974;29;20036;-77
2022/01/05 04:31:29;;;;;;;;;;;;;;;;;;10231774;28;20069;-78
2022/01/05 04:36:33;;;;;;;0.32;0.10;;;;;;;;;;10216699;28;19929;-78
2022/01/05 04:41:38;;;;;;;0.00;0.00;;;;;;;;;;10215209;29;20044;-77
2022/01/05 04:46:40;;;;;;;;;;;;;;;;;;10222020;29;20361;-77
2022/01/05 04:51:46;;;;;;;0.10;0.10;;;;;;;;;;10225743;29;19922;-78
2022/01/05 04:56:51;;;;;;;0.00;0.00;;;;;;;;;;10214592;29;20481;-79
2022/01/05 05:01:54;;;;;;;0.10;0.00;;;;;;;;;;10229831;28;20104;-77
2022/01/05 05:06:57;;;;;;;0.90;0.30;;;;;;;;;;10241555;28;20114;-78
2022/01/05 05:12:02;;;;;;;0.00;0.00;;;;;;;;;;10225375;29;20122;-79
2022/01/05 05:17:07;;;;;;;0.00;0.00;;;;;;;;;;10234301;29;20059;-80
2022/01/05 05:22:12;;;;;;;0.00;0.00;;;;;;;;;;10224229;29;20051;-79
2022/01/05 05:27:17;;;;;;;0.10;0.00;;;;;;;;;;10226155;29;20040;-77
2022/01/05 05:32:19;;;;;;;;;;;;;;;;;;10217412;29;20055;-79
2022/01/05 05:37:25;;;;;;;0.13;0.00;;;;;;;;;;10220565;29;19929;-77
2022/01/05 05:42:29;;;;;;;0.10;0.00;;;;;;;;;;10232179;29;20056;-76
2022/01/05 05:47:33;;;;;;;0.00;0.00;;;;;;;;;;10231318;29;20039;-76
2022/01/05 05:52:36;;;;;;;1.15;0.20;;;;;;;;;;10221229;29;20067;-79
2022/01/05 05:57:42;;;;;;;0.50;0.20;;;;;;;;;;10224939;29;20051;-79
2022/01/05 06:02:45;;;;;;;0.07;0.03;;;;;;;;;;10223328;29;20108;-78
2022/01/05 06:07:48;;;;;;;0.20;0.10;;;;;;;;;;10217250;29;20043;-78
2022/01/05 06:12:55;;;;;;;0.00;0.00;;;;;;;;;;10232079;29;20521;-76
2022/01/05 06:17:58;;;;;;;0.00;0.00;;;;;;;;;;10223700;29;20039;-77
2022/01/05 06:23:01;;;;;;;0.00;0.00;;;;;;;;;;10225211;29;20063;-79
2022/01/05 06:28:08;;;;;;;0.55;0.20;;;;;;;;;;10224716;29;20056;-78
2022/01/05 06:33:11;;;;;;;0.30;0.20;;;;;;;;;;10232086;29;20035;-76
2022/01/05 06:38:14;;;;;;;0.00;0.00;;;;;;;;;;10232631;29;20035;-77
2022/01/05 06:43:21;;;;;;;0.33;0.10;;;;;;;;;;10234522;29;20062;-76
2022/01/05 06:48:25;;;;;;;0.93;0.20;;;;;;;;;;10222838;29;20090;-76
2022/01/05 06:53:28;;;;;;;0.40;0.40;;;;;;;;;;10246812;28;20110;-77
2022/01/05 06:58:34;;;;;;;0.10;0.10;;;;;;;;;;10226124;29;20136;-77
2022/01/05 07:03:37;;;;;;;0.00;0.00;;;;;;;;;;10226062;29;20043;-77
2022/01/05 07:08:40;;;;;;;0.13;0.13;;;;;;;;;;10239336;28;20035;-77
2022/01/05 07:13:44;;;;;;;4.13;0.10;;;;;;;;;;10225821;29;20036;-76
2022/01/05 07:18:47;;;;;;;0.00;0.00;;;;;;;;;;10242705;29;20102;-77
2022/01/05 07:23:50;;;;;;;0.10;0.10;;;;;;;;;;10235817;28;20031;-77
2022/01/05 07:28:55;;;;;;;0.30;0.10;;;;;;;;;;10230586;29;20098;-79
2022/01/05 07:33:58;;;;;;;0.50;0.30;;;;;;;;;;10224263;28;20079;-77
2022/01/05 07:39:03;;;;;;;0.00;0.00;;;;;;;;;;10221809;29;20059;-78
2022/01/05 07:44:08;;;;;;;0.10;0.10;;;;;;;;;;10216786;29;20456;-80
2022/01/05 07:49:11;;;;;;;0.33;0.30;;;;;;;;;;10234824;28;20717;-79
2022/01/05 07:54:14;;;;;;;0.10;0.10;;;;;;;;;;10219320;29;20062;-77
2022/01/05 07:59:18;;;;;;;0.43;0.20;;;;;;;;;;10218563;29;20039;-77
2022/01/05 08:04:22;;;;;;;0.17;0.10;;;;;;;;;;10216469;28;20040;-79
2022/01/05 08:09:25;;;;;;;0.77;0.30;;;;;;;;;;10216471;29;20032;-78
2022/01/05 08:14:29;;;;;;;0.00;0.00;;;;;;;;;;10204607;29;20040;-79
2022/01/05 08:19:35;;;;;;;0.20;0.20;;;;;;;;;;10205079;29;20036;-79
2022/01/05 08:24:38;;;;;;;0.97;0.30;;;;;;;;;;10215810;29;20566;-80
2022/01/05 08:29:43;;;;;;;0.00;0.00;;;;;;;;;;10216793;28;20094;-78
2022/01/05 08:34:48;;;;;;;0.70;0.40;;;;;;;;;;10222352;29;20150;-78
2022/01/05 08:39:53;;;;;;;0.23;0.20;;;;;;;;;;10227646;29;20032;-79
2022/01/05 08:45:02;;;;;;;0.20;0.20;;;;;;;;;;10237089;29;20032;-79
2022/01/05 08:50:06;;;;;;;0.20;0.20;;;;;;;;;;10231460;29;20044;-78
2022/01/05 08:55:09;;;;;;;0.30;0.30;;;;;;;;;;10223627;29;20054;-81
2022/01/05 09:00:15;;;;;;;0.05;0.05;;;;;;;;;;10218582;29;20106;-78
2022/01/05 09:05:18;;;;;;;0.20;0.17;;;;;;;;;;10224329;29;20040;-79
2022/01/05 09:10:22;;;;;;;0.10;0.10;;;;;;;;;;10238563;29;20063;-80
2022/01/05 09:15:27;;;;;;;0.30;0.30;;;;;;;;;;10227063;29;20444;-80
2022/01/05 09:20:30;;;;;;;0.03;0.03;;;;;;;;;;10225957;29;20046;-81
2022/01/05 09:25:33;;;;;;;1.03;0.57;;;;;;;;;;10237055;29;20512;-79
2022/01/05 09:30:37;;;;;;;0.23;0.23;;;;;;;;;;10228133;29;20051;-79
2022/01/05 09:35:40;;;;;;;0.23;0.20;;;;;;;;;;10232861;29;20569;-79
2022/01/05 09:46:07;;;;;;;2.10;0.83;;;;;;;;;;10219949;28;20035;-78
2022/01/05 09:51:12;;;;;;;3.07;1.73;;;;;;;;;;10219100;29;20044;-79
2022/01/05 09:56:15;;;;;;;1.87;1.00;;;;;;;;;;10224554;29;20044;-78
2022/01/05 10:01:20;;;;;;;1.00;0.83;;;;;;;;;;10232411;29;20062;-79
2022/01/05 10:06:25;;;;;;;1.57;1.00;;;;;;;;;;10247260;28;20484;-76
2022/01/05 10:11:29;;;;;;;2.33;1.10;;;;;;;;;;10227883;29;20059;-77
2022/01/05 10:16:33;;;;;;;1.37;1.13;;;;;;;;;;10227998;28;20039;-77
2022/01/05 10:21:38;;;;;;;2.07;1.57;;;;;;;;;;10220993;29;20356;-77
2022/01/05 10:26:42;;;;;;;1.50;1.00;;;;;;;;;;10235173;29;20062;-77
2022/01/05 10:31:52;;;;;;;2.57;1.57;;;;;;;;;;10239369;29;20032;-77
2022/01/05 10:36:59;;;;;;;0.73;0.73;;;;;;;;;;10241933;28;20078;-78
2022/01/05 10:42:04;;;;;;;1.77;1.07;;;;;;;;;;10228453;29;20078;-78
2022/01/05 10:47:09;;;;;;;0.63;0.50;;;;;;;;;;10228513;29;20043;-77
2022/01/05 10:52:20;;;;;;;2.60;1.50;;;;;;;;;;10248792;23;20055;-77
2022/01/05 10:57:23;;;;;;;1.30;0.87;;;;;;;;;;10243774;28;20738;-77
2022/01/05 11:02:31;;;;;;;1.90;0.80;;;;;;;;;;10216748;28;20094;-77
2022/01/05 11:07:37;;;;;;;0.80;0.70;;;;;;;;;;10199984;29;20497;-76
2022/01/05 11:12:43;;;;;;;0.40;0.40;;;;;;;;;;10198807;29;20118;-76
2022/01/05 11:18:01;;;;;;;1.27;1.00;;;;;;;;;;10183509;29;20051;-76
2022/01/05 11:23:06;;;;;;;2.27;1.10;;;;;;;;;;10195172;29;20733;-77
2022/01/05 11:28:14;;;;;;;2.93;0.70;;;;;;;;;;10194761;29;20222;-77
2022/01/05 11:33:17;;;;;;;0.17;0.17;;;;;;;;;;10206784;29;20036;-77
2022/01/05 11:38:23;;;;;;;0.60;0.43;;;;;;;;;;10208378;29;20130;-76
2022/01/05 11:43:28;;;;;;;0.63;0.40;;;;;;;;;;10208663;29;20032;-77
2022/01/05 11:48:34;;;;;;;0.23;0.23;;;;;;;;;;10198663;29;20146;-78
2022/01/05 11:53:40;;;;;;;0.50;0.50;;;;;;;;;;10203042;29;20043;-77
2022/01/05 11:58:54;;;;;;;1.90;0.80;;;;;;;;;;10207193;29;20091;-77
2022/01/05 12:04:05;;;;;;;2.33;0.90;;;;;;;;;;10197034;29;20054;-76
2022/01/05 12:09:18;;;;;;;2.37;1.10;;;;;;;;;;10203848;29;20032;-77
2022/01/05 12:14:36;;;;;;;1.00;0.50;;;;;;;;;;10219216;28;20059;-76
2022/01/05 12:19:54;;;;;;;0.37;0.20;;;;;;;;;;10192243;29;20108;-76
2022/01/05 12:25:07;;;;;;;1.30;0.70;;;;;;;;;;10193394;29;20686;-77
2022/01/05 12:30:28;;;;;;;0.33;0.33;;;;;;;;;;10236802;28;20036;-78
2022/01/05 12:35:43;;;;;;;3.03;1.03;;;;;;;;;;10204940;29;20043;-77
2022/01/05 12:40:51;;;;;;;0.57;0.50;;;;;;;;;;10192993;29;20068;-77
2022/01/05 12:45:57;;;;;;;3.97;1.10;;;;;;;;;;10189496;29;20048;-77
2022/01/05 12:51:15;;;;;;;0.45;0.45;;;;;;;;;;10192093;29;20051;-78
2022/01/05 12:56:20;;;;;;;0.50;0.20;;;;;;;;;;10193393;29;20108;-77
2022/01/05 13:01:24;;;;;;;4.70;1.20;;;;;;;;;;10196105;29;20044;-77
2022/01/05 13:06:30;;;;;;;0.57;0.57;;;;;;;;;;10208556;29;20111;-77
2022/01/05 13:11:37;;;;;;;1.60;0.90;;;;;;;;;;10200390;29;20035;-78
2022/01/05 13:16:39;;;;;;;2.13;0.60;;;;;;;;;;10209491;28;20046;-76
2022/01/05 13:21:46;;;;;;;1.50;0.70;;;;;;;;;;10194723;29;20594;-77
2022/01/05 13:26:59;;;;;;;3.17;0.90;;;;;;;;;;10201218;29;20739;-76
2022/01/05 13:32:04;;;;;;;1.50;1.00;;;;;;;;;;10204682;29;20392;-77
2022/01/05 13:37:09;;;;;;;1.30;1.00;;;;;;;;;;10213543;29;20040;-77
2022/01/05 13:42:29;;;;;;;3.07;1.50;;;;;;;;;;10213780;29;20071;-78
2022/01/05 13:47:32;;;;;;;1.00;0.60;;;;;;;;;;10197683;29;20044;-77
2022/01/05 13:52:35;;;;;;;1.27;0.80;;;;;;;;;;10193649;29;20047;-76
2022/01/05 13:57:39;;;;;;;2.90;1.10;;;;;;;;;;10219855;29;20099;-77
2022/01/05 14:02:42;;;;;;;2.70;1.57;;;;;;;;;;10202996;29;20134;-77
2022/01/05 14:07:45;;;;;;;2.03;1.03;;;;;;;;;;10216461;29;20094;-76
2022/01/05 14:12:50;;;;;;;4.13;0.67;;;;;;;;;;10207666;29;20322;-78
2022/01/05 14:18:07;;;;;;;3.00;0.97;;;;;;;;;;10209874;29;20042;-77
2022/01/05 14:23:11;;;;;;;4.03;1.33;;;;;;;;;;10199692;29;20056;-76
2022/01/05 14:28:17;;;;;;;2.60;0.90;;;;;;;;;;10200790;29;20468;-78
2022/01/05 14:33:34;;;;;;;5.53;1.17;;;;;;;;;;10202056;29;20457;-77
2022/01/05 14:38:51;;;;;;;1.27;0.70;;;;;;;;;;10201612;29;20047;-76
2022/01/05 14:44:10;;;;;;;1.37;0.80;;;;;;;;;;10212397;29;20047;-78
2022/01/05 14:49:14;;;;;;;5.30;0.50;;;;;;;;;;10201977;29;20147;-76
2022/01/05 14:54:22;;;;;;;0.57;0.30;;;;;;;;;;10208366;29;20114;-77
2022/01/05 14:59:26;;;;;;;4.30;1.10;;;;;;;;;;10203492;29;20038;-76
2022/01/05 15:04:32;;;;;;;3.33;1.00;;;;;;;;;;10204556;29;20040;-77
2022/01/05 15:09:42;;;;;;;3.50;1.52;;;;;;;;;;10213586;28;20047;-77
2022/01/05 15:14:46;;;;;;;1.03;0.30;;;;;;;;;;10209685;29;20583;-77
2022/01/05 15:19:49;;;;;;;0.40;0.37;;;;;;;;;;10220216;29;20035;-78
2022/01/05 15:24:52;;;;;;;2.10;1.00;;;;;;;;;;10206517;29;20055;-76
2022/01/05 15:29:57;;;;;;;3.63;1.00;;;;;;;;;;10222813;29;20063;-77
2022/01/05 15:35:00;;;;;;;0.10;0.10;;;;;;;;;;10201340;29;20044;-76
2022/01/05 15:40:03;;;;;;;0.77;0.60;;;;;;;;;;10203931;29;20036;-77
2022/01/05 15:45:08;;;;;;;0.83;0.50;;;;;;;;;;10199327;29;20058;-77
2022/01/05 15:50:11;;;;;;;1.90;0.83;;;;;;;;;;10202607;29;20200;-77
2022/01/05 15:55:18;;;;;;;1.33;0.70;;;;;;;;;;10210076;29;20167;-77
2022/01/05 16:05:45;;;;;;;3.60;0.73;;;;;;;;;;10210606;29;20051;-77
2022/01/05 16:10:48;;;;;;;1.25;0.77;;;;;;;;;;10205966;29;20091;-78
2022/01/05 16:15:53;;;;;;;1.10;0.90;;;;;;;;;;10207799;29;20488;-77
2022/01/05 16:20:56;;;;;;;;;;;;;;;;;;10212413;29;20760;-78
2022/01/05 16:25:59;;;;;;;3.50;0.87;;;;;;;;;;10202291;29;19930;-77
2022/01/05 16:31:03;;;;;;;0.30;0.30;;;;;;;;;;10209566;29;20048;-77
2022/01/05 16:36:09;;;;;;;2.83;0.80;;;;;;;;;;10214717;29;20155;-77
2022/01/05 16:41:17;;;;;;;2.10;0.83;;;;;;;;;;10235785;28;20035;-77
2022/01/05 16:46:22;;;;;;;2.13;1.10;;;;;;;;;;10206444;29;20036;-78
2022/01/05 16:51:28;;;;;;;3.37;1.43;;;;;;;;;;10208762;29;20065;-79
2022/01/05 17:00:24;;;;;;;0.70;0.40;;;;;;;;;;10225241;29;20047;-79
2022/01/05 17:02:11;;;;;;;4.40;1.50;;;;;;;;;;10224837;29;20130;-79
2022/01/05 17:07:14;;;;;;;2.70;1.17;;;;;;;;;;10261207;23;20107;-71
2022/01/05 17:12:18;;;;;;;2.00;0.80;;;;;;;;;;10208083;29;20491;-71
2022/01/05 17:17:23;;;;;;;1.20;0.70;;;;;;;;;;10240454;23;20059;-77
2022/01/05 17:22:25;;;;;;;1.07;0.60;;;;;;;;;;10243968;28;20291;-77
2022/01/05 17:27:31;;;;;;;2.00;0.93;;;;;;;;;;10237687;28;20047;-77
2022/01/05 17:32:36;;;;;;;0.33;0.30;;;;;;;;;;10247648;28;20059;-78
2022/01/05 17:38:00;;;;;;;2.08;1.05;;;;;;;;;;10242074;28;20127;-77
2022/01/05 17:43:03;;;;;;;2.53;1.13;;;;;;;;;;10243667;28;20034;-78
2022/01/05 17:48:18;;;;;;;5.27;1.50;;;;;;;;;;10253204;28;20142;-79
2022/01/05 17:53:21;;;;;;;0.70;0.70;;;;;;;;;;10251224;28;20307;-77
2022/01/05 17:58:24;;;;;;;2.43;1.30;;;;;;;;;;10239148;28;20092;-78
2022/01/05 18:03:29;;;;;;;2.13;0.80;;;;;;;;;;10247725;28;20388;-77
2022/01/05 18:08:34;;;;;;;0.50;0.50;;;;;;;;;;10242647;28;20042;-78
2022/01/05 18:13:42;;;;;;;2.70;0.90;;;;;;;;;;10249760;28;20420;-79
2022/01/05 18:18:48;;;;;;;1.27;0.60;;;;;;;;;;10233242;28;20039;-77
2022/01/05 18:23:51;;;;;;;3.27;1.07;;;;;;;;;;10246181;28;20035;-79
2022/01/05 18:28:55;;;;;;;1.20;0.80;;;;;;;;;;10243436;28;20102;-78
2022/01/05 18:34:00;;;;;;;6.93;2.03;;;;;;;;;;10239026;28;20145;-77
2022/01/05 18:39:04;;;;;;;11.83;1.73;;;;;;;;;;10244113;28;20055;-77
2022/01/05 18:44:28;;;;;;;2.92;0.75;;;;;;;;;;10238603;28;20334;-78
2022/01/05 18:49:33;;;;;;;1.93;0.80;;;;;;;;;;10239731;28;20538;-78
2022/01/05 18:54:36;;;;;;;3.17;1.37;;;;;;;;;;10236384;28;20035;-78
2022/01/05 18:59:39;;;;;;;4.67;1.50;;;;;;;;;;10237210;28;20051;-78
2022/01/05 19:04:44;;;;;;;5.55;1.33;;;;;;;;;;10235138;28;20042;-78
2022/01/05 19:09:48;;;;;;;3.53;1.10;;;;;;;;;;10237247;28;20043;-78
2022/01/05 19:14:51;;;;;;;1.63;0.77;;;;;;;;;;10239676;28;20046;-78
2022/01/05 19:19:55;;;;;;;1.47;0.97;;;;;;;;;;10231306;28;20079;-78
2022/01/05 19:24:58;;;;;;;3.50;1.40;;;;;;;;;;10249894;28;20077;-76
2022/01/05 19:30:24;;;;;;;2.53;0.73;;;;;;;;;;10241336;28;20633;-77
2022/01/05 19:35:29;;;;;;;4.27;0.87;;;;;;;;;;10235892;28;20047;-77
2022/01/05 19:40:31;;;;;;;;;;;;;;;;;;10234183;28;20185;-77
2022/01/05 19:45:35;;;;;;;2.83;1.33;;;;;;;;;;10236808;28;19922;-77
2022/01/05 19:50:43;;;;;;;;;;;;;;;;;;10240070;28;20423;-77
2022/01/05 19:55:49;;;;;;;2.33;1.00;;;;;;;;;;10232029;28;19930;-79
2022/01/05 20:00:52;;;;;;;0.50;0.50;;;;;;;;;;10236528;28;20202;-78
2022/01/05 20:05:55;;;;;;;7.93;1.83;;;;;;;;;;10229831;28;20047;-76
2022/01/05 20:11:03;;;;;;;3.23;0.90;;;;;;;;;;10229488;28;20310;-78
2022/01/05 20:16:06;;;;;;;4.37;0.80;;;;;;;;;;10227427;28;20110;-78
2022/01/05 20:21:09;;;;;;;6.80;1.57;;;;;;;;;;10230963;28;20043;-78
2022/01/05 20:26:15;;;;;;;2.57;1.00;;;;;;;;;;10232709;28;20124;-77
2022/01/05 20:31:19;;;;;;;3.60;1.00;;;;;;;;;;10239981;28;20043;-77
2022/01/05 20:36:31;;;;;;;6.03;1.77;;;;;;;;;;10237592;28;20039;-78
2022/01/05 20:41:35;;;;;;;4.90;1.60;;;;;;;;;;10241339;28;20158;-77
2022/01/05 20:46:38;;;;;;;1.63;0.90;;;;;;;;;;10251292;28;20039;-78
2022/01/05 20:51:41;;;;;;;0.57;0.30;;;;;;;;;;10246854;28;20075;-76
2022/01/05 20:56:46;;;;;;;2.40;0.90;;;;;;;;;;10249569;28;20035;-78
2022/01/05 21:01:49;;;;;;;1.40;0.60;;;;;;;;;;10261928;28;20039;-78
2022/01/05 21:06:55;;;;;;;2.63;0.90;;;;;;;;;;10246474;28;20035;-77
2022/01/05 21:11:59;;;;;;;3.93;1.10;;;;;;;;;;10259332;28;20043;-78
2022/01/05 21:17:02;;;;;;;2.33;1.20;;;;;;;;;;10248985;28;20106;-79
2022/01/05 21:22:06;;;;;;;2.07;0.30;;;;;;;;;;10244598;28;20039;-78
2022/01/05 21:27:10;;;;;;;3.10;1.07;;;;;;;;;;10240980;28;20043;-77
2022/01/05 21:32:12;;;;;;;;;;;;;;;;;;10246263;28;20039;-77
2022/01/05 21:37:15;;;;;;;2.20;0.90;;;;;;;;;;10242427;28;20448;-78
2022/01/05 21:42:21;;;;;;;1.80;0.73;;;;;;;;;;10237680;28;20106;-79
2022/01/05 21:47:24;;;;;;;1.67;0.67;;;;;;;;;;10241613;28;20082;-79
2022/01/05 21:52:26;;;;;;;8.40;2.27;;;;;;;;;;10261263;28;20090;-80
2022/01/05 21:57:33;;;;;;;4.33;0.57;;;;;;;;;;10257943;28;20067;-78
2022/01/05 22:02:36;;;;;;;0.70;0.57;;;;;;;;;;10242353;28;20035;-78
2022/01/05 22:07:39;;;;;;;14.10;1.23;;;;;;;;;;10252758;28;20134;-78
2022/01/05 22:12:44;;;;;;;1.40;0.80;;;;;;;;;;10248076;28;20070;-79
2022/01/05 22:17:49;;;;;;;2.83;0.73;;;;;;;;;;10235628;28;20488;-79
2022/01/05 22:22:53;;;;;;;3.78;1.00;;;;;;;;;;10235124;28;20575;-77
2022/01/05 22:27:58;;;;;;;4.93;1.37;;;;;;;;;;10238548;28;20044;-77
2022/01/05 22:33:03;;;;;;;4.70;0.93;;;;;;;;;;10234478;28;20460;-78
2022/01/05 22:38:06;;;;;;;2.10;1.07;;;;;;;;;;10258168;28;20046;-79
2022/01/05 22:43:10;;;;;;;2.27;0.77;;;;;;;;;;10260057;28;20456;-76
2022/01/05 22:48:26;;;;;;;3.20;1.23;;;;;;;;;;10233561;28;20134;-78
2022/01/05 22:53:29;;;;;;;6.27;1.57;;;;;;;;;;10238227;28;20411;-78
2022/01/05 22:58:33;;;;;;;5.80;1.83;;;;;;;;;;10240874;28;20126;-79
2022/01/05 23:03:36;;;;;;;3.33;1.10;;;;;;;;;;10238845;28;20040;-78
2022/01/05 23:08:39;;;;;;;3.53;0.83;;;;;;;;;;10253774;28;20054;-76
2022/01/05 23:13:43;;;;;;;4.93;1.50;;;;;;;;;;10247489;28;20098;-76
2022/01/05 23:18:47;;;;;;;;;;;;;;;;;;10254946;28;20229;-78
2022/01/05 23:23:51;;;;;;;3.13;1.37;;;;;;;;;;10249432;28;19933;-77
2022/01/05 23:28:55;;;;;;;6.97;1.55;;;;;;;;;;10241266;28;20043;-78
2022/01/05 23:33:58;;;;;;;3.08;1.23;;;;;;;;;;10238830;28;20046;-77
2022/01/05 23:39:01;;;;;;;2.13;0.93;;;;;;;;;;10246108;28;20044;-78
2022/01/05 23:44:05;;;;;;;0.30;0.20;;;;;;;;;;10237256;28;20701;-78
2022/01/05 23:49:08;;;;;;;5.23;1.30;;;;;;;;;;10243537;28;20047;-79
2022/01/05 23:54:11;;;;;;;3.70;1.63;;;;;;;;;;10240980;28;20067;-77
2022/01/05 23:59:15;;;;;;;3.43;1.40;;;;;;;;;;10241096;28;20129;-79
